Womac, Illinois
Current Conditions -  °F | °C
As of 9:55 AM on Sunday 23 Nov 2014 (Local Time) from K3LF Reporting Station
Overcast Overcast  
Wind Chill: 51°   Ceiling: 1300
Heat Index: 51°   Visibility: 10mi
Dew Point: 47°   Wind: 15mph
Humidity: 86%   Direction: 150°SSE
Pressure: 29.67"   Gusts: 20mph
Location:  39.2714°N, 89.9463°W
Report Text: K3LF 231555Z AUTO 15013G17KT 10SM OVC013 11/09 A2967 RMK AO2 T01080085
Loading
Personal Weather Stations






























Interactive Weather Map New forecast layout! Learn more

10-Day Weather Forecast

Advertisements
Track Severe Weather on mobile